sensor_id;sensor_type;location;lat;lon;timestamp;pressure;altitude;pressure_sealevel;temperature;humidity
47811;BME280;33575;52.600;7.318;2023-04-09T00:01:49;102518.28;;;8.99;88.05
47811;BME280;33575;52.600;7.318;2023-04-09T00:04:20;102518.82;;;9.01;87.84
47811;BME280;33575;52.600;7.318;2023-04-09T00:06:50;102516.96;;;9.03;88.03
47811;BME280;33575;52.600;7.318;2023-04-09T00:09:21;102521.27;;;8.99;88.02
47811;BME280;33575;52.600;7.318;2023-04-09T00:11:52;102521.87;;;8.94;88.07
47811;BME280;33575;52.600;7.318;2023-04-09T00:14:23;102522.40;;;8.91;87.95
47811;BME280;33575;52.600;7.318;2023-04-09T00:16:53;102522.78;;;8.91;87.58
47811;BME280;33575;52.600;7.318;2023-04-09T00:19:23;102521.01;;;8.84;87.24
47811;BME280;33575;52.600;7.318;2023-04-09T00:21:53;102521.97;;;8.77;87.40
47811;BME280;33575;52.600;7.318;2023-04-09T00:24:23;102521.66;;;8.67;88.30
47811;BME280;33575;52.600;7.318;2023-04-09T00:26:53;102519.04;;;8.63;88.25
47811;BME280;33575;52.600;7.318;2023-04-09T00:29:24;102517.37;;;8.57;88.70
47811;BME280;33575;52.600;7.318;2023-04-09T00:31:55;102514.92;;;8.52;88.57
47811;BME280;33575;52.600;7.318;2023-04-09T00:34:25;102515.26;;;8.52;88.43
47811;BME280;33575;52.600;7.318;2023-04-09T00:36:56;102513.88;;;8.47;88.35
47811;BME280;33575;52.600;7.318;2023-04-09T00:39:26;102515.83;;;8.47;88.93
47811;BME280;33575;52.600;7.318;2023-04-09T00:41:58;102514.59;;;8.48;88.68
47811;BME280;33575;52.600;7.318;2023-04-09T00:44:28;102518.34;;;8.49;89.44
47811;BME280;33575;52.600;7.318;2023-04-09T00:46:58;102518.33;;;8.49;88.88
47811;BME280;33575;52.600;7.318;2023-04-09T00:49:29;102513.83;;;8.52;89.17
47811;BME280;33575;52.600;7.318;2023-04-09T00:51:59;102512.68;;;8.53;88.90
47811;BME280;33575;52.600;7.318;2023-04-09T00:54:30;102513.16;;;8.51;88.97
47811;BME280;33575;52.600;7.318;2023-04-09T00:57:00;102513.64;;;8.50;89.16
47811;BME280;33575;52.600;7.318;2023-04-09T00:59:30;102511.04;;;8.52;89.03
47811;BME280;33575;52.600;7.318;2023-04-09T01:02:01;102510.39;;;8.52;89.50
47811;BME280;33575;52.600;7.318;2023-04-09T01:04:31;102506.23;;;8.52;89.19
47811;BME280;33575;52.600;7.318;2023-04-09T01:07:08;102502.63;;;8.54;89.25
47811;BME280;33575;52.600;7.318;2023-04-09T01:09:35;102502.32;;;8.51;89.49
47811;BME280;33575;52.600;7.318;2023-04-09T01:12:11;102501.85;;;8.53;88.72
47811;BME280;33575;52.600;7.318;2023-04-09T01:14:38;102497.88;;;8.56;88.79
47811;BME280;33575;52.600;7.318;2023-04-09T01:17:04;102495.70;;;8.56;88.20
47811;BME280;33575;52.600;7.318;2023-04-09T01:19:41;102499.02;;;8.54;88.73
47811;BME280;33575;52.600;7.318;2023-04-09T01:22:09;102498.03;;;8.50;88.57
47811;BME280;33575;52.600;7.318;2023-04-09T01:24:41;102497.46;;;8.44;89.03
47811;BME280;33575;52.600;7.318;2023-04-09T01:27:06;102497.65;;;8.41;89.34
47811;BME280;33575;52.600;7.318;2023-04-09T01:29:46;102498.59;;;8.38;89.56
47811;BME280;33575;52.600;7.318;2023-04-09T01:32:07;102500.68;;;8.34;89.23
47811;BME280;33575;52.600;7.318;2023-04-09T01:34:37;102496.06;;;8.32;89.55
47811;BME280;33575;52.600;7.318;2023-04-09T01:37:08;102497.63;;;8.30;90.81
47811;BME280;33575;52.600;7.318;2023-04-09T01:39:38;102494.54;;;8.30;89.36
47811;BME280;33575;52.600;7.318;2023-04-09T01:42:09;102488.61;;;8.30;89.48
47811;BME280;33575;52.600;7.318;2023-04-09T01:44:39;102487.70;;;8.27;89.64
47811;BME280;33575;52.600;7.318;2023-04-09T01:47:10;102485.55;;;8.27;89.49
47811;BME280;33575;52.600;7.318;2023-04-09T01:49:41;102485.40;;;8.28;89.08
47811;BME280;33575;52.600;7.318;2023-04-09T01:52:11;102481.76;;;8.27;89.45
47811;BME280;33575;52.600;7.318;2023-04-09T01:54:42;102483.63;;;8.28;89.87
47811;BME280;33575;52.600;7.318;2023-04-09T01:57:12;102482.65;;;8.29;89.53
47811;BME280;33575;52.600;7.318;2023-04-09T01:59:42;102482.40;;;8.28;89.32
47811;BME280;33575;52.600;7.318;2023-04-09T02:02:17;102483.28;;;8.28;89.75
47811;BME280;33575;52.600;7.318;2023-04-09T02:04:46;102485.41;;;8.28;89.65
47811;BME280;33575;52.600;7.318;2023-04-09T02:07:17;102484.79;;;8.26;89.84
47811;BME280;33575;52.600;7.318;2023-04-09T02:09:45;102483.94;;;8.26;90.23
47811;BME280;33575;52.600;7.318;2023-04-09T02:12:16;102479.72;;;8.27;90.01
47811;BME280;33575;52.600;7.318;2023-04-09T02:14:45;102479.12;;;8.24;89.95
47811;BME280;33575;52.600;7.318;2023-04-09T02:17:14;102475.01;;;8.22;89.74
47811;BME280;33575;52.600;7.318;2023-04-09T02:19:46;102472.24;;;8.21;90.40
47811;BME280;33575;52.600;7.318;2023-04-09T02:22:16;102470.84;;;8.20;90.18
47811;BME280;33575;52.600;7.318;2023-04-09T02:24:46;102472.52;;;8.21;90.13
47811;BME280;33575;52.600;7.318;2023-04-09T02:27:16;102468.97;;;8.22;89.81
47811;BME280;33575;52.600;7.318;2023-04-09T02:29:47;102465.46;;;8.24;89.28
47811;BME280;33575;52.600;7.318;2023-04-09T02:32:18;102469.50;;;8.25;89.98
47811;BME280;33575;52.600;7.318;2023-04-09T02:34:48;102466.25;;;8.24;89.72
47811;BME280;33575;52.600;7.318;2023-04-09T02:37:19;102465.64;;;8.25;89.79
47811;BME280;33575;52.600;7.318;2023-04-09T02:39:49;102463.65;;;8.26;89.91
47811;BME280;33575;52.600;7.318;2023-04-09T02:42:20;102461.63;;;8.27;89.66
47811;BME280;33575;52.600;7.318;2023-04-09T02:44:51;102462.29;;;8.27;89.97
47811;BME280;33575;52.600;7.318;2023-04-09T02:47:21;102459.31;;;8.27;90.07
47811;BME280;33575;52.600;7.318;2023-04-09T02:49:52;102454.87;;;8.27;89.72
47811;BME280;33575;52.600;7.318;2023-04-09T02:52:22;102451.97;;;8.26;89.90
47811;BME280;33575;52.600;7.318;2023-04-09T02:54:53;102449.34;;;8.25;90.16
47811;BME280;33575;52.600;7.318;2023-04-09T02:57:24;102446.93;;;8.20;90.06
47811;BME280;33575;52.600;7.318;2023-04-09T02:59:54;102449.42;;;8.15;90.09
47811;BME280;33575;52.600;7.318;2023-04-09T03:02:25;102449.76;;;8.12;90.01
47811;BME280;33575;52.600;7.318;2023-04-09T03:04:55;102448.12;;;8.11;89.80
47811;BME280;33575;52.600;7.318;2023-04-09T03:07:26;102447.49;;;8.09;90.00
47811;BME280;33575;52.600;7.318;2023-04-09T03:09:57;102444.09;;;8.09;89.95
47811;BME280;33575;52.600;7.318;2023-04-09T03:12:27;102435.41;;;8.11;89.31
47811;BME280;33575;52.600;7.318;2023-04-09T03:15:00;102432.68;;;8.11;89.89
47811;BME280;33575;52.600;7.318;2023-04-09T03:17:29;102432.70;;;8.21;95.90
47811;BME280;33575;52.600;7.318;2023-04-09T03:20:00;102428.64;;;8.28;92.41
47811;BME280;33575;52.600;7.318;2023-04-09T03:22:34;102431.83;;;8.33;91.00
47811;BME280;33575;52.600;7.318;2023-04-09T03:25:01;102430.61;;;8.31;90.30
47811;BME280;33575;52.600;7.318;2023-04-09T03:27:32;102431.89;;;8.30;89.69
47811;BME280;33575;52.600;7.318;2023-04-09T03:30:02;102432.92;;;8.29;89.32
47811;BME280;33575;52.600;7.318;2023-04-09T03:32:32;102431.91;;;8.25;88.84
47811;BME280;33575;52.600;7.318;2023-04-09T03:35:03;102430.76;;;8.21;88.75
47811;BME280;33575;52.600;7.318;2023-04-09T03:37:33;102429.65;;;8.19;88.56
47811;BME280;33575;52.600;7.318;2023-04-09T03:40:04;102432.96;;;8.16;88.34
47811;BME280;33575;52.600;7.318;2023-04-09T03:42:34;102434.28;;;8.13;88.02
47811;BME280;33575;52.600;7.318;2023-04-09T03:45:05;102432.28;;;8.09;87.54
47811;BME280;33575;52.600;7.318;2023-04-09T03:47:34;102432.37;;;8.04;87.40
47811;BME280;33575;52.600;7.318;2023-04-09T03:50:06;102426.85;;;7.96;87.16
47811;BME280;33575;52.600;7.318;2023-04-09T03:52:35;102425.19;;;7.91;87.20
47811;BME280;33575;52.600;7.318;2023-04-09T03:55:07;102424.73;;;7.85;86.80
47811;BME280;33575;52.600;7.318;2023-04-09T03:57:36;102423.21;;;7.78;86.95
47811;BME280;33575;52.600;7.318;2023-04-09T04:00:07;102422.62;;;7.73;87.04
47811;BME280;33575;52.600;7.318;2023-04-09T04:02:37;102425.18;;;7.68;86.85
47811;BME280;33575;52.600;7.318;2023-04-09T04:05:07;102426.92;;;7.62;86.34
47811;BME280;33575;52.600;7.318;2023-04-09T04:07:38;102425.22;;;7.55;86.23
47811;BME280;33575;52.600;7.318;2023-04-09T04:10:09;102425.13;;;7.51;86.56
47811;BME280;33575;52.600;7.318;2023-04-09T04:12:39;102426.24;;;7.47;86.72
47811;BME280;33575;52.600;7.318;2023-04-09T04:15:10;102430.09;;;7.43;86.73
47811;BME280;33575;52.600;7.318;2023-04-09T04:17:40;102429.90;;;7.37;86.63
47811;BME280;33575;52.600;7.318;2023-04-09T04:20:10;102429.45;;;7.32;86.43
47811;BME280;33575;52.600;7.318;2023-04-09T04:22:41;102428.49;;;7.26;86.00
47811;BME280;33575;52.600;7.318;2023-04-09T04:25:12;102430.47;;;7.21;86.23
47811;BME280;33575;52.600;7.318;2023-04-09T04:27:41;102434.03;;;7.15;86.16
47811;BME280;33575;52.600;7.318;2023-04-09T04:30:12;102436.17;;;7.13;85.97
47811;BME280;33575;52.600;7.318;2023-04-09T04:32:43;102434.43;;;7.08;85.80
47811;BME280;33575;52.600;7.318;2023-04-09T04:35:13;102429.93;;;7.03;86.22
47811;BME280;33575;52.600;7.318;2023-04-09T04:37:43;102432.61;;;7.00;86.38
47811;BME280;33575;52.600;7.318;2023-04-09T04:40:14;102434.94;;;6.98;86.65
47811;BME280;33575;52.600;7.318;2023-04-09T04:42:45;102433.39;;;6.94;85.42
47811;BME280;33575;52.600;7.318;2023-04-09T04:45:15;102430.11;;;6.87;85.21
47811;BME280;33575;52.600;7.318;2023-04-09T04:47:46;102431.89;;;6.82;84.77
47811;BME280;33575;52.600;7.318;2023-04-09T04:50:16;102431.21;;;6.75;85.34
47811;BME280;33575;52.600;7.318;2023-04-09T04:52:46;102432.50;;;6.71;85.94
47811;BME280;33575;52.600;7.318;2023-04-09T04:55:16;102431.90;;;6.69;86.32
47811;BME280;33575;52.600;7.318;2023-04-09T04:57:47;102429.96;;;6.66;85.73
47811;BME280;33575;52.600;7.318;2023-04-09T05:00:17;102428.00;;;6.61;85.36
47811;BME280;33575;52.600;7.318;2023-04-09T05:02:47;102431.79;;;6.57;85.13
47811;BME280;33575;52.600;7.318;2023-04-09T05:05:18;102434.25;;;6.53;85.70
47811;BME280;33575;52.600;7.318;2023-04-09T05:07:49;102434.33;;;6.48;85.96
47811;BME280;33575;52.600;7.318;2023-04-09T05:10:19;102435.40;;;6.45;85.97
47811;BME280;33575;52.600;7.318;2023-04-09T05:12:49;102436.11;;;6.40;85.90
47811;BME280;33575;52.600;7.318;2023-04-09T05:15:20;102436.31;;;6.36;85.31
47811;BME280;33575;52.600;7.318;2023-04-09T05:17:51;102437.77;;;6.30;85.15
47811;BME280;33575;52.600;7.318;2023-04-09T05:20:21;102437.53;;;6.22;85.06
47811;BME280;33575;52.600;7.318;2023-04-09T05:22:52;102437.79;;;6.14;84.93
47811;BME280;33575;52.600;7.318;2023-04-09T05:25:22;102440.67;;;6.08;85.08
47811;BME280;33575;52.600;7.318;2023-04-09T05:27:53;102442.33;;;6.06;85.09
47811;BME280;33575;52.600;7.318;2023-04-09T05:30:23;102442.89;;;6.01;86.05
47811;BME280;33575;52.600;7.318;2023-04-09T05:32:53;102441.55;;;5.93;86.12
47811;BME280;33575;52.600;7.318;2023-04-09T05:35:23;102441.24;;;5.87;86.56
47811;BME280;33575;52.600;7.318;2023-04-09T05:37:53;102439.20;;;5.80;87.10
47811;BME280;33575;52.600;7.318;2023-04-09T05:40:24;102439.42;;;5.73;86.91
47811;BME280;33575;52.600;7.318;2023-04-09T05:42:55;102441.87;;;5.68;87.16
47811;BME280;33575;52.600;7.318;2023-04-09T05:45:25;102444.56;;;5.68;87.31
47811;BME280;33575;52.600;7.318;2023-04-09T05:47:55;102446.57;;;5.69;87.02
47811;BME280;33575;52.600;7.318;2023-04-09T05:50:25;102447.32;;;5.73;86.97
47811;BME280;33575;52.600;7.318;2023-04-09T05:52:56;102445.12;;;5.73;87.22
47811;BME280;33575;52.600;7.318;2023-04-09T05:55:27;102445.65;;;5.72;87.14
47811;BME280;33575;52.600;7.318;2023-04-09T05:57:57;102447.11;;;5.69;87.23
47811;BME280;33575;52.600;7.318;2023-04-09T06:00:28;102447.72;;;5.67;87.23
47811;BME280;33575;52.600;7.318;2023-04-09T06:02:58;102447.69;;;5.66;87.54
47811;BME280;33575;52.600;7.318;2023-04-09T06:05:29;102449.04;;;5.67;87.46
47811;BME280;33575;52.600;7.318;2023-04-09T06:07:59;102451.98;;;5.70;87.64
47811;BME280;33575;52.600;7.318;2023-04-09T06:10:31;102451.56;;;5.71;87.34
47811;BME280;33575;52.600;7.318;2023-04-09T06:13:01;102450.45;;;5.71;88.38
47811;BME280;33575;52.600;7.318;2023-04-09T06:15:31;102450.04;;;5.75;88.39
47811;BME280;33575;52.600;7.318;2023-04-09T06:18:02;102453.13;;;5.81;88.78
47811;BME280;33575;52.600;7.318;2023-04-09T06:20:33;102453.88;;;5.84;88.41
47811;BME280;33575;52.600;7.318;2023-04-09T06:23:04;102455.67;;;5.87;88.06
47811;BME280;33575;52.600;7.318;2023-04-09T06:25:34;102453.87;;;5.87;88.84
47811;BME280;33575;52.600;7.318;2023-04-09T06:28:05;102456.58;;;5.91;89.55
47811;BME280;33575;52.600;7.318;2023-04-09T06:30:35;102455.81;;;5.95;89.27
47811;BME280;33575;52.600;7.318;2023-04-09T06:33:05;102455.18;;;6.02;89.57
47811;BME280;33575;52.600;7.318;2023-04-09T06:35:35;102455.42;;;6.04;90.08
47811;BME280;33575;52.600;7.318;2023-04-09T06:38:06;102453.43;;;6.10;90.41
47811;BME280;33575;52.600;7.318;2023-04-09T06:40:37;102456.76;;;6.14;90.09
47811;BME280;33575;52.600;7.318;2023-04-09T06:43:06;102462.24;;;6.18;90.19
47811;BME280;33575;52.600;7.318;2023-04-09T06:45:36;102460.16;;;6.20;91.48
47811;BME280;33575;52.600;7.318;2023-04-09T06:48:07;102460.60;;;6.24;91.55
47811;BME280;33575;52.600;7.318;2023-04-09T06:50:37;102458.66;;;6.29;90.91
47811;BME280;33575;52.600;7.318;2023-04-09T06:53:07;102463.95;;;6.27;93.37
47811;BME280;33575;52.600;7.318;2023-04-09T06:55:38;102465.76;;;6.37;91.57
47811;BME280;33575;52.600;7.318;2023-04-09T06:58:08;102470.41;;;6.45;91.58
47811;BME280;33575;52.600;7.318;2023-04-09T07:00:38;102472.03;;;6.50;91.21
47811;BME280;33575;52.600;7.318;2023-04-09T07:03:09;102473.98;;;6.41;92.59
47811;BME280;33575;52.600;7.318;2023-04-09T07:05:39;102476.32;;;6.46;92.20
47811;BME280;33575;52.600;7.318;2023-04-09T07:08:10;102476.70;;;6.48;92.42
47811;BME280;33575;52.600;7.318;2023-04-09T07:10:41;102473.44;;;6.48;93.59
47811;BME280;33575;52.600;7.318;2023-04-09T07:13:11;102475.42;;;6.53;92.96
47811;BME280;33575;52.600;7.318;2023-04-09T07:15:43;102477.39;;;6.53;93.09
47811;BME280;33575;52.600;7.318;2023-04-09T07:18:12;102479.52;;;6.61;92.33
47811;BME280;33575;52.600;7.318;2023-04-09T07:20:43;102481.23;;;6.70;92.32
47811;BME280;33575;52.600;7.318;2023-04-09T07:23:13;102481.71;;;6.80;92.78
47811;BME280;33575;52.600;7.318;2023-04-09T07:25:44;102482.62;;;6.90;92.25
47811;BME280;33575;52.600;7.318;2023-04-09T07:28:14;102484.63;;;6.99;92.38
47811;BME280;33575;52.600;7.318;2023-04-09T07:30:45;102482.36;;;7.04;92.12
47811;BME280;33575;52.600;7.318;2023-04-09T07:33:16;102482.27;;;7.11;92.09
47811;BME280;33575;52.600;7.318;2023-04-09T07:35:46;102477.22;;;7.20;91.61
47811;BME280;33575;52.600;7.318;2023-04-09T07:38:16;102475.32;;;7.25;91.98
47811;BME280;33575;52.600;7.318;2023-04-09T07:40:47;102473.43;;;7.34;91.90
47811;BME280;33575;52.600;7.318;2023-04-09T07:43:18;102475.08;;;7.43;91.25
47811;BME280;33575;52.600;7.318;2023-04-09T07:45:48;102478.63;;;7.49;92.60
47811;BME280;33575;52.600;7.318;2023-04-09T07:48:18;102480.34;;;7.58;91.47
47811;BME280;33575;52.600;7.318;2023-04-09T07:50:49;102486.68;;;7.65;90.81
47811;BME280;33575;52.600;7.318;2023-04-09T07:53:19;102484.98;;;7.57;89.55
47811;BME280;33575;52.600;7.318;2023-04-09T07:55:50;102485.93;;;7.60;90.42
47811;BME280;33575;52.600;7.318;2023-04-09T07:58:20;102487.64;;;7.57;89.79
47811;BME280;33575;52.600;7.318;2023-04-09T08:00:50;102488.47;;;7.52;90.23
47811;BME280;33575;52.600;7.318;2023-04-09T08:03:21;102489.78;;;7.48;91.96
47811;BME280;33575;52.600;7.318;2023-04-09T08:05:52;102487.10;;;7.56;91.15
47811;BME280;33575;52.600;7.318;2023-04-09T08:08:22;102490.68;;;7.61;90.63
47811;BME280;33575;52.600;7.318;2023-04-09T08:10:53;102490.54;;;7.63;90.24
47811;BME280;33575;52.600;7.318;2023-04-09T08:13:23;102492.05;;;7.66;90.38
47811;BME280;33575;52.600;7.318;2023-04-09T08:15:54;102492.07;;;7.75;90.46
47811;BME280;33575;52.600;7.318;2023-04-09T08:18:24;102494.45;;;7.75;90.59
47811;BME280;33575;52.600;7.318;2023-04-09T08:20:54;102491.92;;;7.78;90.16
47811;BME280;33575;52.600;7.318;2023-04-09T08:23:25;102487.81;;;7.82;90.38
47811;BME280;33575;52.600;7.318;2023-04-09T08:25:56;102490.34;;;7.81;89.94
47811;BME280;33575;52.600;7.318;2023-04-09T08:28:26;102492.83;;;7.76;90.13
47811;BME280;33575;52.600;7.318;2023-04-09T08:30:57;102492.81;;;7.76;90.41
47811;BME280;33575;52.600;7.318;2023-04-09T08:33:27;102493.93;;;7.76;91.08
47811;BME280;33575;52.600;7.318;2023-04-09T08:35:57;102491.16;;;7.82;90.54
47811;BME280;33575;52.600;7.318;2023-04-09T08:38:28;102488.79;;;7.87;90.39
47811;BME280;33575;52.600;7.318;2023-04-09T08:40:59;102488.71;;;7.92;90.63
47811;BME280;33575;52.600;7.318;2023-04-09T08:43:35;102490.11;;;7.96;90.81
47811;BME280;33575;52.600;7.318;2023-04-09T08:46:00;102493.58;;;8.06;91.73
47811;BME280;33575;52.600;7.318;2023-04-09T08:48:31;102495.04;;;8.15;93.31
47811;BME280;33575;52.600;7.318;2023-04-09T08:51:01;102490.92;;;8.35;92.82
47811;BME280;33575;52.600;7.318;2023-04-09T08:53:31;102489.54;;;8.54;92.91
47811;BME280;33575;52.600;7.318;2023-04-09T08:56:01;102486.74;;;8.67;90.84
47811;BME280;33575;52.600;7.318;2023-04-09T08:58:31;102484.99;;;8.73;91.25
47811;BME280;33575;52.600;7.318;2023-04-09T09:01:02;102484.80;;;8.78;90.94
47811;BME280;33575;52.600;7.318;2023-04-09T09:03:42;102480.62;;;8.90;91.28
47811;BME280;33575;52.600;7.318;2023-04-09T09:06:03;102482.72;;;9.05;91.39
47811;BME280;33575;52.600;7.318;2023-04-09T09:08:33;102481.87;;;9.18;90.92
47811;BME280;33575;52.600;7.318;2023-04-09T09:11:04;102481.39;;;9.23;90.75
47811;BME280;33575;52.600;7.318;2023-04-09T09:13:34;102479.66;;;9.27;90.04
47811;BME280;33575;52.600;7.318;2023-04-09T09:16:11;102477.90;;;9.37;90.19
47811;BME280;33575;52.600;7.318;2023-04-09T09:18:37;102477.81;;;9.48;91.57
47811;BME280;33575;52.600;7.318;2023-04-09T09:21:09;102474.00;;;9.59;89.70
47811;BME280;33575;52.600;7.318;2023-04-09T09:23:36;102470.63;;;9.68;90.11
47811;BME280;33575;52.600;7.318;2023-04-09T09:26:12;102468.24;;;9.87;94.86
47811;BME280;33575;52.600;7.318;2023-04-09T09:28:37;102471.77;;;10.08;92.27
47811;BME280;33575;52.600;7.318;2023-04-09T09:31:08;102468.63;;;10.26;90.83
47811;BME280;33575;52.600;7.318;2023-04-09T09:33:38;102466.92;;;10.36;89.44
47811;BME280;33575;52.600;7.318;2023-04-09T09:36:09;102468.68;;;10.47;90.06
47811;BME280;33575;52.600;7.318;2023-04-09T09:38:51;102463.16;;;10.60;89.51
47811;BME280;33575;52.600;7.318;2023-04-09T09:41:15;102461.46;;;10.79;89.02
47811;BME280;33575;52.600;7.318;2023-04-09T09:43:40;102459.27;;;10.86;89.00
47811;BME280;33575;52.600;7.318;2023-04-09T09:46:11;102457.93;;;10.93;87.58
47811;BME280;33575;52.600;7.318;2023-04-09T09:48:41;102458.96;;;11.00;88.76
47811;BME280;33575;52.600;7.318;2023-04-09T09:51:12;102456.60;;;11.12;86.12
47811;BME280;33575;52.600;7.318;2023-04-09T09:53:43;102454.56;;;11.29;88.43
47811;BME280;33575;52.600;7.318;2023-04-09T09:56:15;102449.42;;;11.49;87.15
47811;BME280;33575;52.600;7.318;2023-04-09T09:58:46;102445.59;;;11.69;87.41
47811;BME280;33575;52.600;7.318;2023-04-09T10:01:13;102445.01;;;11.85;87.88
47811;BME280;33575;52.600;7.318;2023-04-09T10:03:45;102443.72;;;12.03;87.42
47811;BME280;33575;52.600;7.318;2023-04-09T10:06:14;102441.34;;;12.11;85.07
47811;BME280;33575;52.600;7.318;2023-04-09T10:08:47;102440.36;;;12.33;85.70
47811;BME280;33575;52.600;7.318;2023-04-09T10:11:16;102436.05;;;12.46;83.31
47811;BME280;33575;52.600;7.318;2023-04-09T10:13:50;102433.03;;;12.56;81.06
47811;BME280;33575;52.600;7.318;2023-04-09T10:16:16;102428.00;;;12.75;84.12
47811;BME280;33575;52.600;7.318;2023-04-09T10:18:47;102426.24;;;12.93;79.57
47811;BME280;33575;52.600;7.318;2023-04-09T10:21:27;102423.76;;;13.09;82.42
47811;BME280;33575;52.600;7.318;2023-04-09T10:23:48;102420.51;;;13.30;81.67
47811;BME280;33575;52.600;7.318;2023-04-09T10:26:19;102419.83;;;13.49;80.41
47811;BME280;33575;52.600;7.318;2023-04-09T10:29:02;102415.56;;;13.63;79.34
47811;BME280;33575;52.600;7.318;2023-04-09T10:31:20;102411.71;;;13.76;77.97
47811;BME280;33575;52.600;7.318;2023-04-09T10:33:50;102413.33;;;13.86;78.84
47811;BME280;33575;52.600;7.318;2023-04-09T10:36:20;102405.71;;;14.04;79.47
47811;BME280;33575;52.600;7.318;2023-04-09T10:38:51;102405.15;;;14.31;76.05
47811;BME280;33575;52.600;7.318;2023-04-09T10:41:26;102398.04;;;14.50;74.61
47811;BME280;33575;52.600;7.318;2023-04-09T10:43:52;102398.64;;;14.69;74.93
47811;BME280;33575;52.600;7.318;2023-04-09T10:46:26;102402.54;;;14.85;73.76
47811;BME280;33575;52.600;7.318;2023-04-09T10:51:24;102397.83;;;15.07;71.44
47811;BME280;33575;52.600;7.318;2023-04-09T10:53:52;102393.34;;;15.17;72.80
47811;BME280;33575;52.600;7.318;2023-04-09T10:56:23;102393.54;;;15.28;72.26
47811;BME280;33575;52.600;7.318;2023-04-09T10:58:54;102391.30;;;15.33;70.86
47811;BME280;33575;52.600;7.318;2023-04-09T11:01:24;102393.00;;;15.52;69.42
47811;BME280;33575;52.600;7.318;2023-04-09T11:06:25;102387.11;;;15.69;69.82
47811;BME280;33575;52.600;7.318;2023-04-09T11:09:00;102385.10;;;15.62;69.63
47811;BME280;33575;52.600;7.318;2023-04-09T11:11:26;102380.95;;;15.55;69.72
47811;BME280;33575;52.600;7.318;2023-04-09T11:13:58;102375.46;;;15.61;69.86
47811;BME280;33575;52.600;7.318;2023-04-09T11:16:30;102370.28;;;15.57;68.57
47811;BME280;33575;52.600;7.318;2023-04-09T11:18:57;102364.61;;;15.47;68.91
47811;BME280;33575;52.600;7.318;2023-04-09T11:21:27;102357.89;;;15.38;68.87
47811;BME280;33575;52.600;7.318;2023-04-09T11:23:57;102360.00;;;15.35;69.82
47811;BME280;33575;52.600;7.318;2023-04-09T11:26:34;102358.52;;;15.32;69.23
47811;BME280;33575;52.600;7.318;2023-04-09T11:29:03;102360.30;;;15.22;68.67
47811;BME280;33575;52.600;7.318;2023-04-09T11:31:28;102353.15;;;15.16;69.82
47811;BME280;33575;52.600;7.318;2023-04-09T11:33:59;102349.65;;;15.15;68.19
47811;BME280;33575;52.600;7.318;2023-04-09T11:36:29;102345.70;;;15.37;69.37
47811;BME280;33575;52.600;7.318;2023-04-09T11:39:01;102343.37;;;15.47;67.24
47811;BME280;33575;52.600;7.318;2023-04-09T11:41:32;102342.99;;;15.54;67.79
47811;BME280;33575;52.600;7.318;2023-04-09T11:44:02;102344.48;;;15.59;68.56
47811;BME280;33575;52.600;7.318;2023-04-09T11:46:32;102344.71;;;15.64;67.71
47811;BME280;33575;52.600;7.318;2023-04-09T11:49:03;102343.08;;;15.51;67.11
47811;BME280;33575;52.600;7.318;2023-04-09T11:51:33;102338.63;;;15.56;66.60
47811;BME280;33575;52.600;7.318;2023-04-09T11:54:04;102337.42;;;15.29;67.09
47811;BME280;33575;52.600;7.318;2023-04-09T11:56:34;102342.18;;;15.15;67.69
47811;BME280;33575;52.600;7.318;2023-04-09T11:59:03;102336.87;;;15.15;67.87
47811;BME280;33575;52.600;7.318;2023-04-09T12:01:34;102331.88;;;15.24;69.95
47811;BME280;33575;52.600;7.318;2023-04-09T12:04:04;102333.60;;;15.27;68.77
47811;BME280;33575;52.600;7.318;2023-04-09T12:06:39;102333.00;;;15.21;68.77
47811;BME280;33575;52.600;7.318;2023-04-09T12:09:04;102339.60;;;14.99;69.86
47811;BME280;33575;52.600;7.318;2023-04-09T12:11:35;102339.85;;;15.06;69.71
47811;BME280;33575;52.600;7.318;2023-04-09T12:14:04;102344.66;;;15.21;68.20
47811;BME280;33575;52.600;7.318;2023-04-09T12:16:35;102343.56;;;15.27;68.47
47811;BME280;33575;52.600;7.318;2023-04-09T12:19:07;102339.57;;;15.37;67.01
47811;BME280;33575;52.600;7.318;2023-04-09T12:21:43;102341.40;;;15.28;66.86
47811;BME280;33575;52.600;7.318;2023-04-09T12:24:07;102339.79;;;15.12;67.28
47811;BME280;33575;52.600;7.318;2023-04-09T12:26:38;102338.47;;;14.96;67.33
47811;BME280;33575;52.600;7.318;2023-04-09T12:29:08;102338.87;;;15.04;67.96
47811;BME280;33575;52.600;7.318;2023-04-09T12:31:38;102342.33;;;15.03;67.92
47811;BME280;33575;52.600;7.318;2023-04-09T12:34:09;102339.82;;;15.00;69.08
47811;BME280;33575;52.600;7.318;2023-04-09T12:36:40;102339.47;;;15.21;68.22
47811;BME280;33575;52.600;7.318;2023-04-09T12:39:10;102329.91;;;15.42;65.94
47811;BME280;33575;52.600;7.318;2023-04-09T12:41:40;102323.74;;;15.38;65.16
47811;BME280;33575;52.600;7.318;2023-04-09T12:44:11;102322.69;;;15.35;66.18
47811;BME280;33575;52.600;7.318;2023-04-09T12:46:42;102323.81;;;15.27;64.74
47811;BME280;33575;52.600;7.318;2023-04-09T12:49:12;102316.49;;;15.42;66.38
47811;BME280;33575;52.600;7.318;2023-04-09T12:51:43;102315.85;;;15.46;66.59
47811;BME280;33575;52.600;7.318;2023-04-09T12:54:13;102316.68;;;15.49;66.38
47811;BME280;33575;52.600;7.318;2023-04-09T12:56:44;102314.88;;;15.59;63.94
47811;BME280;33575;52.600;7.318;2023-04-09T12:59:15;102314.40;;;15.56;65.68
47811;BME280;33575;52.600;7.318;2023-04-09T13:01:46;102308.09;;;15.39;64.34
47811;BME280;33575;52.600;7.318;2023-04-09T13:04:16;102309.06;;;15.32;65.34
47811;BME280;33575;52.600;7.318;2023-04-09T13:06:47;102302.64;;;15.22;65.29
47811;BME280;33575;52.600;7.318;2023-04-09T13:09:17;102304.57;;;15.29;65.90
47811;BME280;33575;52.600;7.318;2023-04-09T13:11:48;102305.97;;;15.38;65.36
47811;BME280;33575;52.600;7.318;2023-04-09T13:14:18;102308.93;;;15.45;66.63
47811;BME280;33575;52.600;7.318;2023-04-09T13:16:48;102303.88;;;15.58;65.95
47811;BME280;33575;52.600;7.318;2023-04-09T13:19:19;102303.94;;;15.75;65.95